Time;durP1;ratioP1;P1;durP2;ratioP2;P2;SDS_P1;SDS_P2;PMS_P1;PMS_P2;Temp;Humidity;BMP_temperature;BMP_pressure;BME280_temperature;BME280_humidity;BME280_pressure;Samples;Min_cycle;Max_cycle;Signal;HPM_P1;HPM_P2
2024/01/14 00:00:22;;;;;;;62.60;25.40;;;;;;;-1.18;51.61;99413.94;108302;1254;73471;-66
2024/01/14 00:02:48;;;;;;;74.40;26.80;;;;;;;-1.14;51.49;99410.66;108179;1254;61912;-67
2024/01/14 00:05:15;;;;;;;63.60;25.90;;;;;;;-1.01;51.78;99411.16;108279;1254;60328;-66
2024/01/14 00:07:42;;;;;;;63.30;26.10;;;;;;;-0.87;52.21;99403.36;108202;1253;73445;-66
2024/01/14 00:10:09;;;;;;;74.70;27.80;;;;;;;-0.66;52.09;99402.61;108197;1254;70738;-66
2024/01/14 00:12:36;;;;;;;66.90;26.80;;;;;;;-0.68;51.90;99393.83;108177;1253;72791;-66
2024/01/14 00:15:03;;;;;;;61.40;22.40;;;;;;;-0.69;51.35;99391.25;108138;1254;61793;-66
2024/01/14 00:17:30;;;;;;;61.00;25.90;;;;;;;-0.74;51.46;99383.16;108240;1254;59995;-65
2024/01/14 00:20:01;;;;;;;;;;;;;;;-0.70;51.36;99379.19;108143;1256;73420;-66
2024/01/14 00:22:28;;;;;;;65.10;27.40;;;;;;;-0.78;50.98;99380.24;108242;1253;70597;-66
2024/01/14 00:24:55;;;;;;;66.60;28.00;;;;;;;-1.02;51.20;99379.80;108242;1254;71557;-66
2024/01/14 00:27:22;;;;;;;58.20;21.70;;;;;;;-1.00;50.78;99378.94;108191;1254;61798;-67
2024/01/14 00:29:49;;;;;;;68.60;27.70;;;;;;;-1.11;51.35;99378.43;108246;1254;59529;-65
2024/01/14 00:32:16;;;;;;;77.70;31.00;;;;;;;-0.89;50.77;99376.33;108129;1254;72931;-66
2024/01/14 00:34:43;;;;;;;67.50;27.70;;;;;;;-0.86;50.87;99378.72;108017;1254;71699;-67
2024/01/14 00:37:10;;;;;;;59.50;25.60;;;;;;;-0.85;50.96;99371.83;108167;1254;72466;-67
2024/01/14 00:39:37;;;;;;;57.10;23.40;;;;;;;-0.85;51.06;99369.41;108220;1254;61774;-67
2024/01/14 00:42:05;;;;;;;64.80;25.90;;;;;;;-1.01;51.42;99368.60;108208;1254;60170;-66
2024/01/14 00:44:31;;;;;;;71.60;24.70;;;;;;;-0.91;51.21;99365.48;108231;1254;73060;-67
2024/01/14 00:46:58;;;;;;;54.20;18.30;;;;;;;-0.99;51.36;99363.59;108170;1254;70579;-67
2024/01/14 00:49:25;;;;;;;68.80;25.80;;;;;;;-1.02;51.79;99352.75;108121;1256;73143;-66
2024/01/14 00:51:54;;;;;;;66.30;26.40;;;;;;;-0.88;51.85;99349.43;108262;1254;62011;-71
2024/01/14 00:54:21;;;;;;;60.20;24.40;;;;;;;-0.82;52.02;99345.11;108181;1253;59525;-66
2024/01/14 00:56:48;;;;;;;57.30;26.00;;;;;;;-0.73;52.61;99341.80;108062;1254;73514;-66
2024/01/14 00:59:15;;;;;;;70.60;26.00;;;;;;;-0.49;52.53;99337.04;108218;1253;70574;-66
2024/01/14 01:01:42;;;;;;;65.80;23.40;;;;;;;-0.28;51.99;99333.81;108121;1254;73205;-67
2024/01/14 01:04:08;;;;;;;54.00;22.70;;;;;;;-0.16;52.66;99332.20;108207;1253;61274;-65
2024/01/14 01:06:35;;;;;;;63.40;26.40;;;;;;;-0.00;52.58;99323.11;108144;1253;60333;-66
2024/01/14 01:09:02;;;;;;;55.50;23.80;;;;;;;0.21;51.67;99315.88;108188;1253;72889;-66
2024/01/14 01:11:29;;;;;;;59.50;23.90;;;;;;;0.37;51.38;99311.77;108175;1254;70979;-66
2024/01/14 01:13:55;;;;;;;60.10;23.30;;;;;;;0.66;50.77;99302.34;108041;1257;72988;-67
2024/01/14 01:16:22;;;;;;;60.30;25.80;;;;;;;0.97;50.14;99301.66;108156;1254;60862;-67
2024/01/14 01:18:49;;;;;;;57.00;26.10;;;;;;;1.01;48.79;99300.39;108218;1254;60094;-66
2024/01/14 01:21:22;;;;;;;62.20;23.80;;;;;;;0.66;48.75;99295.59;108138;1254;72978;-66
2024/01/14 01:23:48;;;;;;;61.60;24.70;;;;;;;0.42;48.72;99296.01;108303;1254;69045;-67
2024/01/14 01:26:15;;;;;;;60.30;24.30;;;;;;;0.19;49.07;99294.32;108231;1254;72098;-67
2024/01/14 01:28:42;;;;;;;66.10;25.20;;;;;;;-0.00;49.61;99291.89;108214;1254;62092;-66
2024/01/14 01:31:09;;;;;;;65.40;24.10;;;;;;;-0.11;50.03;99285.39;108187;1253;60299;-65
2024/01/14 01:33:35;;;;;;;62.00;25.70;;;;;;;-0.25;50.40;99280.16;108272;1254;73728;-66
2024/01/14 01:36:04;;;;;;;58.90;22.80;;;;;;;-0.23;49.97;99279.61;108291;1254;68865;-67
2024/01/14 01:38:32;;;;;;;56.50;23.90;;;;;;;-0.33;50.89;99275.88;108185;1253;72986;-66
2024/01/14 01:40:58;;;;;;;52.40;22.00;;;;;;;-0.10;50.85;99271.07;108272;1254;61053;-67
2024/01/14 01:43:25;;;;;;;58.70;23.10;;;;;;;-0.12;51.83;99271.26;108180;1254;59663;-66
2024/01/14 01:45:52;;;;;;;63.60;25.00;;;;;;;-0.06;51.91;99265.86;108289;1255;74585;-65
2024/01/14 01:48:19;;;;;;;57.40;23.30;;;;;;;0.19;52.39;99258.23;108210;1254;70862;-67
2024/01/14 01:50:46;;;;;;;54.90;24.20;;;;;;;0.28;52.13;99257.10;108120;1253;73034;-66
2024/01/14 01:53:14;;;;;;;55.50;24.60;;;;;;;0.57;51.24;99254.58;108253;1256;61758;-66
2024/01/14 01:55:41;;;;;;;53.10;22.80;;;;;;;0.59;50.46;99256.80;108150;1253;60347;-67
2024/01/14 01:58:08;;;;;;;45.60;16.40;;;;;;;0.42;50.22;99253.36;108126;1254;72232;-66
2024/01/14 02:00:36;;;;;;;49.10;23.00;;;;;;;0.37;50.59;99247.70;108040;1254;69029;-66
2024/01/14 02:03:07;;;;;;;56.60;22.10;;;;;;;0.56;50.13;99239.55;108132;1254;72570;-67
2024/01/14 02:05:34;;;;;;;50.40;21.30;;;;;;;0.63;50.31;99232.07;107996;1253;60822;-67
2024/01/14 02:08:01;;;;;;;59.20;25.90;;;;;;;0.57;50.23;99226.95;107865;1254;60331;-67
2024/01/14 02:10:27;;;;;;;62.90;26.30;;;;;;;0.33;49.59;99221.16;108024;1253;74418;-66
2024/01/14 02:12:56;;;;;;;58.80;24.70;;;;;;;0.37;49.34;99223.02;108050;1254;71175;-67
2024/01/14 02:15:22;;;;;;;61.70;25.80;;;;;;;0.17;49.74;99221.83;108047;1253;71193;-66
2024/01/14 02:17:49;;;;;;;52.60;23.60;;;;;;;0.03;50.22;99219.20;108067;1253;61798;-66
2024/01/14 02:20:16;;;;;;;43.20;18.90;;;;;;;0.01;50.39;99213.68;108136;1254;60768;-67
2024/01/14 02:22:43;;;;;;;51.90;23.00;;;;;;;-0.04;50.61;99205.79;108057;1254;74367;-67
2024/01/14 02:25:11;;;;;;;56.10;24.70;;;;;;;-0.06;50.88;99197.70;108069;1254;70307;-67
2024/01/14 02:27:37;;;;;;;54.10;23.80;;;;;;;0.05;50.69;99200.02;108226;1253;72528;-66
2024/01/14 02:30:05;;;;;;;53.50;22.90;;;;;;;-0.00;50.89;99187.64;108006;1254;63391;-66
2024/01/14 02:32:37;;;;;;;46.80;17.40;;;;;;;-0.35;52.16;99189.32;108142;1253;60446;-67
2024/01/14 02:35:05;;;;;;;57.10;24.90;;;;;;;-0.15;51.73;99184.50;108202;1253;73124;-66
2024/01/14 02:37:37;;;;;;;61.20;25.00;;;;;;;-0.10;52.11;99181.67;108290;1254;70348;-66
2024/01/14 02:40:04;;;;;;;56.00;25.30;;;;;;;-0.00;52.01;99174.70;108162;1253;72537;-66
2024/01/14 02:42:31;;;;;;;56.10;25.60;;;;;;;0.05;52.10;99172.24;108233;1254;62487;-66
2024/01/14 02:44:58;;;;;;;67.40;26.00;;;;;;;0.05;52.39;99167.23;108201;1254;60640;-67
2024/01/14 02:47:25;;;;;;;59.30;23.60;;;;;;;0.18;52.53;99168.30;108248;1253;74401;-66
2024/01/14 02:49:51;;;;;;;62.10;26.70;;;;;;;0.22;53.03;99167.05;108181;1254;70732;-66
2024/01/14 02:52:18;;;;;;;45.00;18.90;;;;;;;0.38;52.42;99160.33;108330;1254;72445;-67
2024/01/14 02:54:45;;;;;;;63.70;24.10;;;;;;;0.36;51.81;99158.80;108234;1254;60971;-67
2024/01/14 02:57:11;;;;;;;58.00;25.40;;;;;;;0.37;51.30;99149.96;108215;1254;60316;-67
2024/01/14 02:59:38;;;;;;;55.00;23.50;;;;;;;0.22;51.57;99151.70;108215;1253;72403;-66
2024/01/14 03:02:05;;;;;;;59.80;26.60;;;;;;;0.15;51.75;99148.99;108211;1253;70672;-67
2024/01/14 03:04:32;;;;;;;55.80;24.50;;;;;;;-0.04;51.92;99147.46;108247;1254;73366;-67
2024/01/14 03:06:58;;;;;;;52.20;24.10;;;;;;;0.03;51.77;99143.95;108265;1253;62024;-66
2024/01/14 03:09:25;;;;;;;67.50;28.10;;;;;;;-0.10;52.44;99144.09;108170;1253;60352;-64
2024/01/14 03:11:52;;;;;;;59.00;26.20;;;;;;;-0.07;52.45;99131.80;108181;1253;73728;-65
2024/01/14 03:14:19;;;;;;;57.00;22.60;;;;;;;-0.31;52.97;99129.08;108312;1254;68886;-66
2024/01/14 03:16:46;;;;;;;43.70;19.00;;;;;;;-0.29;53.17;99124.59;108186;1253;73516;-66
2024/01/14 03:19:12;;;;;;;67.70;28.20;;;;;;;-0.08;52.74;99123.69;108179;1254;61781;-67
2024/01/14 03:21:39;;;;;;;52.70;22.80;;;;;;;-0.20;53.00;99124.33;108203;1253;60249;-66
2024/01/14 03:24:06;;;;;;;53.90;24.50;;;;;;;-0.14;53.08;99117.71;108175;1256;73767;-66
2024/01/14 03:26:33;;;;;;;55.60;25.00;;;;;;;-0.08;53.71;99113.86;107984;1254;70874;-67
2024/01/14 03:29:00;;;;;;;61.50;26.50;;;;;;;0.00;53.88;99107.56;108179;1253;72658;-67
2024/01/14 03:31:27;;;;;;;69.20;29.40;;;;;;;-0.05;54.30;99110.20;108244;1253;61814;-67
2024/01/14 03:33:54;;;;;;;67.30;27.00;;;;;;;0.21;53.63;99105.62;108188;1253;60514;-66
2024/01/14 03:36:21;;;;;;;55.30;21.20;;;;;;;0.20;53.47;99102.51;108324;1253;73861;-66
2024/01/14 03:38:48;;;;;;;53.80;23.40;;;;;;;0.17;53.71;99093.92;108248;1253;70201;-66
2024/01/14 03:41:16;;;;;;;56.40;23.80;;;;;;;0.42;53.88;99088.11;108112;1259;73519;-67
2024/01/14 03:43:43;;;;;;;65.50;26.30;;;;;;;0.39;53.95;99086.41;108086;1254;61639;-66
2024/01/14 03:46:10;;;;;;;57.00;26.00;;;;;;;0.72;53.24;99077.51;108319;1253;60425;-65
2024/01/14 03:48:37;;;;;;;53.10;23.60;;;;;;;1.10;52.92;99074.54;108242;1254;73919;-66
2024/01/14 03:51:04;;;;;;;53.60;23.60;;;;;;;1.54;53.01;99067.23;108279;1253;70216;-67
2024/01/14 03:53:31;;;;;;;53.60;25.70;;;;;;;1.78;50.95;99066.79;108153;1254;73276;-66
2024/01/14 03:55:58;;;;;;;57.70;26.90;;;;;;;1.56;50.46;99066.15;108280;1253;61966;-65
2024/01/14 03:58:25;;;;;;;54.20;24.80;;;;;;;1.23;50.46;99059.27;108242;1254;60237;-67
2024/01/14 04:00:51;;;;;;;52.70;25.00;;;;;;;0.79;51.43;99059.08;108216;1254;73769;-67
2024/01/14 04:03:18;;;;;;;39.00;15.60;;;;;;;0.41;52.40;99055.64;108337;1253;69192;-67
2024/01/14 04:05:45;;;;;;;43.60;19.30;;;;;;;0.14;53.25;99054.77;108257;1256;72099;-67
2024/01/14 04:08:12;;;;;;;61.10;26.70;;;;;;;0.05;53.82;99057.46;108233;1254;61853;-66
2024/01/14 04:10:39;;;;;;;46.80;21.10;;;;;;;-0.06;54.41;99053.97;108167;1253;60339;-66
2024/01/14 04:13:05;;;;;;;50.60;19.30;;;;;;;-0.21;54.85;99048.42;108029;1256;74286;-67
2024/01/14 04:15:32;;;;;;;53.90;22.40;;;;;;;-0.15;55.38;99049.94;108033;1253;71153;-65
2024/01/14 04:17:59;;;;;;;58.80;26.20;;;;;;;-0.33;55.83;99049.42;108085;1253;73097;-67
2024/01/14 04:20:25;;;;;;;58.10;23.40;;;;;;;-0.03;55.16;99045.30;108250;1253;62046;-66
2024/01/14 04:22:53;;;;;;;59.40;28.40;;;;;;;0.11;54.89;99041.52;107965;1253;60434;-66
2024/01/14 04:25:19;;;;;;;59.80;28.10;;;;;;;0.26;54.83;99040.99;108014;1255;72001;-66
2024/01/14 04:27:46;;;;;;;66.40;26.80;;;;;;;0.31;54.68;99032.81;108080;1257;68088;-66
2024/01/14 04:30:13;;;;;;;58.20;24.60;;;;;;;0.48;54.72;99030.16;108060;1255;72737;-65
2024/01/14 04:32:40;;;;;;;55.50;24.60;;;;;;;0.12;55.65;99031.66;108054;1258;61770;-65
2024/01/14 04:35:07;;;;;;;54.30;25.40;;;;;;;0.18;55.90;99032.79;108210;1254;59215;-66
2024/01/14 04:37:34;;;;;;;50.60;21.50;;;;;;;0.38;55.57;99028.06;108178;1253;72398;-66
2024/01/14 04:40:01;;;;;;;65.30;28.40;;;;;;;0.50;55.20;99019.08;108154;1254;70100;-65
2024/01/14 04:42:28;;;;;;;59.30;25.90;;;;;;;0.62;54.82;99017.17;108192;1253;73253;-66
2024/01/14 04:44:55;;;;;;;60.40;25.00;;;;;;;0.70;54.97;99010.86;108062;1254;61661;-68
2024/01/14 04:47:21;;;;;;;60.70;26.50;;;;;;;0.88;55.11;99011.09;108168;1253;60324;-66
2024/01/14 04:49:48;;;;;;;55.10;24.90;;;;;;;1.04;54.94;99003.41;108101;1253;73712;-66
2024/01/14 04:52:16;;;;;;;61.60;26.90;;;;;;;1.11;54.52;98999.48;108170;1253;70791;-66
2024/01/14 04:54:43;;;;;;;66.10;27.50;;;;;;;1.20;53.97;99002.98;108135;1253;73077;-65
2024/01/14 04:57:09;;;;;;;51.60;24.20;;;;;;;1.03;54.18;98992.17;108141;1254;61858;-67
2024/01/14 04:59:37;;;;;;;59.90;25.30;;;;;;;0.91;54.59;98991.68;108144;1254;60331;-66
2024/01/14 05:02:04;;;;;;;60.20;28.10;;;;;;;0.85;54.66;98982.98;108197;1254;74177;-66
2024/01/14 05:04:30;;;;;;;56.20;25.50;;;;;;;0.98;54.45;98983.27;108175;1253;70909;-65
2024/01/14 05:06:57;;;;;;;66.40;26.50;;;;;;;0.83;55.13;98976.59;108365;1253;71874;-66
2024/01/14 05:09:25;;;;;;;53.10;23.70;;;;;;;0.99;54.75;98974.96;108081;1254;60922;-63
2024/01/14 05:11:52;;;;;;;58.30;25.30;;;;;;;1.16;54.57;98971.39;108174;1253;60392;-66
2024/01/14 05:14:19;;;;;;;55.60;25.30;;;;;;;1.19;54.59;98970.64;108177;1253;73783;-67
2024/01/14 05:16:46;;;;;;;61.50;27.30;;;;;;;1.27;54.52;98970.17;108142;1253;70734;-66
2024/01/14 05:19:12;;;;;;;48.90;19.90;;;;;;;1.33;54.42;98966.41;108139;1253;73023;-67
2024/01/14 05:21:39;;;;;;;55.10;24.60;;;;;;;1.33;54.45;98969.71;108197;1253;61921;-66
2024/01/14 05:24:06;;;;;;;45.30;18.50;;;;;;;1.35;54.42;98969.48;108179;1253;60310;-67
2024/01/14 05:26:33;;;;;;;61.60;26.70;;;;;;;1.17;55.15;98965.48;108215;1253;72384;-67
2024/01/14 05:29:00;;;;;;;55.20;23.70;;;;;;;1.36;54.82;98964.81;107908;1254;70841;-67
2024/01/14 05:31:27;;;;;;;60.10;24.20;;;;;;;1.48;54.49;98963.04;108213;1256;72723;-66
2024/01/14 05:33:54;;;;;;;58.90;26.10;;;;;;;1.14;55.51;98966.41;108224;1253;61857;-66
2024/01/14 05:36:21;;;;;;;70.20;27.80;;;;;;;1.22;55.45;98962.46;108271;1254;60271;-67
2024/01/14 05:38:48;;;;;;;65.40;27.60;;;;;;;1.50;54.72;98956.06;108221;1256;74623;-66
2024/01/14 05:41:14;;;;;;;56.70;26.50;;;;;;;1.32;55.22;98957.27;108217;1254;70721;-66
2024/01/14 05:43:41;;;;;;;62.60;28.20;;;;;;;1.50;55.09;98953.14;108212;1256;71377;-67
2024/01/14 05:46:08;;;;;;;43.70;20.00;;;;;;;1.58;54.87;98954.01;108243;1254;60392;-66
2024/01/14 05:48:34;;;;;;;61.30;26.80;;;;;;;1.54;55.01;98953.05;108241;1253;60592;-67
2024/01/14 05:51:01;;;;;;;54.40;25.00;;;;;;;1.61;55.02;98954.30;108205;1256;73827;-66
2024/01/14 05:53:28;;;;;;;59.80;25.70;;;;;;;1.60;54.99;98957.44;108239;1253;70744;-66
2024/01/14 05:55:55;;;;;;;55.70;18.60;;;;;;;1.69;54.98;98959.16;108223;1254;73257;-66
2024/01/14 05:58:23;;;;;;;56.20;26.20;;;;;;;1.72;55.01;98959.98;108193;1253;61924;-67
2024/01/14 06:00:50;;;;;;;61.60;25.80;;;;;;;1.67;55.10;98956.44;108178;1253;60287;-67
2024/01/14 06:03:17;;;;;;;64.30;28.50;;;;;;;1.73;55.15;98956.33;108247;1253;74115;-66
2024/01/14 06:05:44;;;;;;;62.60;27.90;;;;;;;1.76;54.85;98951.92;108230;1254;70823;-66
2024/01/14 06:08:11;;;;;;;57.60;26.20;;;;;;;1.86;54.85;98953.62;108113;1256;73241;-66
2024/01/14 06:10:38;;;;;;;52.30;22.30;;;;;;;1.92;54.75;98952.48;108157;1253;61038;-67
2024/01/14 06:13:06;;;;;;;60.60;23.70;;;;;;;1.72;55.35;98956.69;108169;1252;60460;-66
2024/01/14 06:15:33;;;;;;;67.90;29.00;;;;;;;1.92;54.87;98956.30;108137;1254;72651;-67
2024/01/14 06:18:02;;;;;;;61.60;24.30;;;;;;;2.06;54.57;98947.14;108193;1256;68246;-67
2024/01/14 06:20:29;;;;;;;60.40;28.10;;;;;;;2.05;54.60;98955.13;108223;1254;72916;-67
2024/01/14 06:22:55;;;;;;;49.90;19.90;;;;;;;2.09;54.77;98954.70;108178;1253;61698;-64
2024/01/14 06:25:22;;;;;;;61.90;24.40;;;;;;;2.12;54.73;98951.70;108235;1254;60344;-66
2024/01/14 06:27:49;;;;;;;46.60;18.40;;;;;;;2.22;54.54;98950.45;108244;1256;73582;-67
2024/01/14 06:30:16;;;;;;;60.10;25.50;;;;;;;2.19;54.73;98944.27;108207;1254;70718;-66
2024/01/14 06:32:43;;;;;;;64.80;27.50;;;;;;;2.46;54.19;98938.30;108118;1254;71781;-66
2024/01/14 06:35:10;;;;;;;41.80;16.20;;;;;;;2.41;54.26;98937.89;108159;1253;61692;-66
2024/01/14 06:37:37;;;;;;;50.40;21.20;;;;;;;2.13;55.05;98937.48;108208;1254;61572;-68
2024/01/14 06:40:05;;;;;;;69.40;29.90;;;;;;;2.39;54.62;98933.61;108201;1253;73651;-67
2024/01/14 06:42:32;;;;;;;59.60;26.50;;;;;;;2.39;54.50;98930.49;108177;1254;69238;-66
2024/01/14 06:44:58;;;;;;;76.70;33.80;;;;;;;2.37;54.70;98931.74;108166;1252;72145;-66
2024/01/14 06:47:25;;;;;;;59.90;24.60;;;;;;;2.56;54.58;98927.31;108217;1255;61831;-66
2024/01/14 06:49:54;;;;;;;66.30;30.70;;;;;;;2.53;54.65;98923.24;108170;1252;60523;-67
2024/01/14 06:52:33;;;;;;;78.30;34.10;;;;;;;2.88;53.91;98923.25;108287;1252;72658;-67
2024/01/14 06:55:00;;;;;;;76.90;32.40;;;;;;;2.82;53.97;98920.46;108252;1253;70850;-66
2024/01/14 06:57:26;;;;;;;66.40;30.10;;;;;;;2.81;54.20;98917.89;108163;1253;71033;-66
2024/01/14 06:59:53;;;;;;;71.20;31.80;;;;;;;2.73;54.42;98916.86;108223;1252;62114;-66
2024/01/14 07:02:20;;;;;;;67.50;31.20;;;;;;;2.83;54.39;98921.11;108170;1253;60450;-67
2024/01/14 07:04:46;;;;;;;75.50;33.40;;;;;;;2.82;54.35;98921.14;108159;1253;74383;-67
2024/01/14 07:07:13;;;;;;;72.60;31.90;;;;;;;2.88;54.40;98920.30;108089;1253;70162;-67
2024/01/14 07:09:40;;;;;;;74.50;33.50;;;;;;;2.95;54.35;98916.65;108227;1254;73338;-67
2024/01/14 07:12:08;;;;;;;69.90;29.60;;;;;;;3.09;53.97;98910.05;108090;1252;62062;-65
2024/01/14 07:14:35;;;;;;;66.30;28.70;;;;;;;3.01;54.36;98910.96;108162;1252;60289;-67
2024/01/14 07:17:02;;;;;;;64.10;29.50;;;;;;;3.19;54.14;98907.71;108191;1253;73606;-66
2024/01/14 07:19:28;;;;;;;62.50;28.40;;;;;;;3.27;54.10;98908.74;108161;1252;69172;-66
2024/01/14 07:21:56;;;;;;;59.70;27.60;;;;;;;3.24;54.20;98904.81;108324;1254;72453;-66
2024/01/14 07:24:22;;;;;;;66.00;32.30;;;;;;;3.43;53.87;98900.48;108191;1256;62222;-66
2024/01/14 07:26:49;;;;;;;61.40;27.80;;;;;;;3.57;53.63;98897.30;108154;1253;60662;-66
2024/01/14 07:29:16;;;;;;;65.30;29.40;;;;;;;3.54;53.78;98896.02;108101;1254;74323;-66
2024/01/14 07:31:43;;;;;;;72.90;34.00;;;;;;;3.45;54.03;98891.21;108221;1253;71039;-67
2024/01/14 07:34:11;;;;;;;75.60;33.70;;;;;;;3.39;54.18;98889.46;108202;1256;72536;-66
2024/01/14 07:36:38;;;;;;;78.20;33.40;;;;;;;3.62;53.81;98886.58;108223;1253;61841;-67
2024/01/14 07:39:05;;;;;;;75.10;33.20;;;;;;;3.77;53.61;98883.52;108229;1253;60370;-67
2024/01/14 07:41:31;;;;;;;78.30;35.30;;;;;;;3.83;53.74;98876.58;108228;1253;74179;-66
2024/01/14 07:43:58;;;;;;;72.30;34.50;;;;;;;4.13;53.16;98874.65;108253;1253;70023;-66
2024/01/14 07:46:25;;;;;;;68.90;30.70;;;;;;;4.13;53.27;98870.30;108223;1254;72946;-66
2024/01/14 07:48:52;;;;;;;73.80;32.20;;;;;;;3.87;53.84;98876.82;108157;1253;61764;-66
2024/01/14 07:51:19;;;;;;;57.70;23.00;;;;;;;3.84;54.02;98880.89;108073;1257;60357;-67
2024/01/14 07:53:49;;;;;;;69.60;33.00;;;;;;;3.98;53.84;98877.36;108184;1254;74528;-66
2024/01/14 07:56:18;;;;;;;71.20;33.60;;;;;;;4.21;53.55;98881.88;108254;1253;70137;-66
2024/01/14 07:58:45;;;;;;;59.20;25.80;;;;;;;4.23;53.51;98877.99;108171;1253;72509;-67
2024/01/14 08:01:11;;;;;;;73.00;34.70;;;;;;;4.11;53.82;98877.50;108164;1254;61955;-66
2024/01/14 08:03:38;;;;;;;84.00;38.50;;;;;;;4.34;53.56;98878.33;108106;1253;60440;-66
2024/01/14 08:06:06;;;;;;;50.30;23.00;;;;;;;4.26;53.56;98877.05;108248;1253;73035;-66
2024/01/14 08:08:33;;;;;;;69.80;28.90;;;;;;;4.27;53.68;98877.67;108265;1254;70312;-66
2024/01/14 08:10:59;;;;;;;63.10;29.70;;;;;;;4.41;53.65;98878.65;108133;1252;73056;-66
2024/01/14 08:13:26;;;;;;;67.30;31.90;;;;;;;4.64;53.06;98875.29;108216;1254;62043;-66
2024/01/14 08:15:53;;;;;;;63.00;30.40;;;;;;;4.53;53.26;98879.30;108001;1253;60427;-67
2024/01/14 08:18:29;;;;;;;61.40;28.60;;;;;;;4.35;53.73;98879.87;108125;1253;74265;-67
2024/01/14 08:20:57;;;;;;;58.90;29.30;;;;;;;4.28;53.87;98877.13;108232;1253;70597;-67
2024/01/14 08:23:24;;;;;;;61.70;30.30;;;;;;;4.35;53.98;98876.74;108179;1254;72122;-67
2024/01/14 08:25:51;;;;;;;45.00;21.10;;;;;;;4.33;53.97;98880.13;108213;1253;61917;-67
2024/01/14 08:28:18;;;;;;;66.60;28.70;;;;;;;4.18;54.55;98877.96;108170;1253;60460;-67
2024/01/14 08:30:44;;;;;;;52.40;23.40;;;;;;;4.40;54.14;98875.71;108222;1254;73695;-65
2024/01/14 08:33:11;;;;;;;67.80;31.00;;;;;;;3.96;55.14;98872.56;108235;1254;70828;-64
2024/01/14 08:35:38;;;;;;;56.20;24.10;;;;;;;4.06;55.33;98869.30;108212;1253;71543;-64
2024/01/14 08:38:05;;;;;;;51.80;24.60;;;;;;;4.39;54.73;98865.48;108217;1253;62005;-65
2024/01/14 08:40:32;;;;;;;58.50;26.10;;;;;;;4.67;54.19;98864.25;108258;1254;60296;-66
2024/01/14 08:42:59;;;;;;;57.40;26.60;;;;;;;4.77;53.80;98861.13;108272;1254;73602;-67
2024/01/14 08:45:26;;;;;;;61.00;26.80;;;;;;;4.87;53.57;98855.58;108176;1254;70990;-67
2024/01/14 08:47:54;;;;;;;57.10;25.40;;;;;;;5.03;53.24;98852.73;108214;1254;71012;-68
2024/01/14 08:50:22;;;;;;;50.60;22.90;;;;;;;5.03;53.55;98852.39;108184;1252;62018;-66
2024/01/14 08:52:48;;;;;;;60.70;26.10;;;;;;;4.98;53.61;98851.21;108286;1254;60549;-67
2024/01/14 08:55:15;;;;;;;54.10;26.10;;;;;;;5.16;53.40;98842.73;108261;1252;74764;-67
2024/01/14 08:57:42;;;;;;;55.50;26.70;;;;;;;5.16;53.40;98839.95;108302;1252;70815;-68
2024/01/14 09:00:10;;;;;;;51.50;24.20;;;;;;;5.15;53.78;98839.64;108175;1254;72592;-67
2024/01/14 09:02:37;;;;;;;57.60;27.10;;;;;;;5.07;53.93;98834.19;108178;1253;60436;-66
2024/01/14 09:05:05;;;;;;;58.30;25.60;;;;;;;4.96;54.07;98833.85;108231;1254;60355;-67
2024/01/14 09:07:35;;;;;;;63.20;26.90;;;;;;;5.23;53.96;98830.31;108279;1254;74883;-68
2024/01/14 09:10:01;;;;;;;50.60;23.10;;;;;;;5.12;54.22;98829.49;108181;1256;70142;-68
2024/01/14 09:12:29;;;;;;;56.90;26.10;;;;;;;5.16;54.48;98824.30;108014;1259;74175;-67
2024/01/14 09:14:56;;;;;;;56.40;24.30;;;;;;;5.20;54.41;98823.10;108172;1253;62017;-66
2024/01/14 09:17:23;;;;;;;55.10;26.40;;;;;;;5.34;54.11;98819.80;108273;1254;60252;-67
2024/01/14 09:19:49;;;;;;;54.20;24.50;;;;;;;5.53;53.60;98814.05;108181;1254;73916;-66
2024/01/14 09:22:16;;;;;;;52.70;24.00;;;;;;;5.50;53.65;98815.23;108241;1254;70125;-66
2024/01/14 09:24:45;;;;;;;56.90;27.50;;;;;;;5.43;53.89;98813.20;108204;1252;73681;-66
2024/01/14 09:27:15;;;;;;;57.90;26.10;;;;;;;5.44;53.77;98808.48;108134;1254;60437;-67
2024/01/14 09:29:42;;;;;;;57.60;24.80;;;;;;;5.36;54.13;98807.22;108209;1254;60342;-66
2024/01/14 09:32:09;;;;;;;55.40;25.90;;;;;;;5.56;53.61;98805.23;108209;1254;74256;-67
2024/01/14 09:34:36;;;;;;;54.80;22.80;;;;;;;5.41;53.94;98805.64;108211;1254;70299;-66
2024/01/14 09:37:03;;;;;;;61.60;28.80;;;;;;;5.41;53.99;98800.21;108162;1254;71903;-67
2024/01/14 09:39:30;;;;;;;61.80;26.30;;;;;;;5.62;53.56;98794.91;108173;1252;60951;-67
2024/01/14 09:42:02;;;;;;;55.50;27.00;;;;;;;5.57;53.59;98797.21;108235;1254;60328;-66
2024/01/14 09:44:31;;;;;;;64.00;27.20;;;;;;;5.70;53.04;98795.13;108190;1254;73904;-67
2024/01/14 09:46:58;;;;;;;51.20;25.80;;;;;;;5.64;53.55;98792.94;108036;1254;70282;-66
2024/01/14 09:49:25;;;;;;;53.20;24.40;;;;;;;5.63;53.33;98791.76;107904;1254;72591;-66
2024/01/14 09:51:51;;;;;;;62.50;28.60;;;;;;;5.68;53.41;98791.55;108186;1257;60912;-66
2024/01/14 09:54:18;;;;;;;48.00;22.50;;;;;;;5.62;53.65;98790.75;108151;1256;61518;-66
2024/01/14 09:56:46;;;;;;;59.00;26.20;;;;;;;5.54;54.29;98788.28;108169;1253;73677;-66
2024/01/14 09:59:14;;;;;;;52.10;25.30;;;;;;;5.49;54.45;98790.02;108078;1254;152492;-66
2024/01/14 10:02:59;;;;;;;54.10;24.60;;;;;;;3.93;59.74;98794.39;105578;1288;600496;-67
2024/01/14 10:05:31;;;;;;;61.90;28.10;;;;;;;5.05;56.71;98780.14;107331;1265;61045;-67
2024/01/14 10:07:58;;;;;;;55.20;25.90;;;;;;;5.19;56.46;98777.02;107414;1267;60071;-67
2024/01/14 10:10:28;;;;;;;67.40;28.80;;;;;;;5.15;56.54;98772.64;107282;1266;72353;-67
2024/01/14 10:12:56;;;;;;;54.80;25.20;;;;;;;5.28;56.28;98768.86;107207;1267;71304;-67
2024/01/14 10:15:26;;;;;;;54.20;22.30;;;;;;;5.44;56.14;98766.87;107328;1266;70926;-67
2024/01/14 10:17:53;;;;;;;49.40;24.10;;;;;;;5.30;56.48;98764.98;107339;1262;59896;-66
2024/01/14 10:20:21;;;;;;;50.00;23.50;;;;;;;5.27;56.51;98763.35;108216;1254;58821;-66
2024/01/14 10:22:49;;;;;;;48.40;22.60;;;;;;;5.00;57.15;98763.61;108103;1254;71361;-66
2024/01/14 10:25:18;;;;;;;51.40;24.20;;;;;;;5.02;57.23;98756.60;107978;1254;70474;-67
2024/01/14 10:27:47;;;;;;;53.60;23.30;;;;;;;5.28;56.76;98749.05;108199;1254;71206;-67
2024/01/14 10:30:14;;;;;;;44.80;21.80;;;;;;;5.25;56.58;98751.20;108180;1253;60001;-66
2024/01/14 10:32:43;;;;;;;43.20;21.10;;;;;;;5.34;56.04;98739.73;108154;1254;59287;-67
2024/01/14 10:35:31;;;;;;;46.30;20.70;;;;;;;5.31;55.91;98738.48;108118;1254;73200;-66
2024/01/14 10:38:01;;;;;;;38.90;18.80;;;;;;;5.14;56.28;98738.59;108068;1254;70728;-66
2024/01/14 10:40:29;;;;;;;42.00;19.70;;;;;;;5.31;55.33;98735.17;108098;1254;72768;-66
2024/01/14 10:42:57;;;;;;;38.60;16.60;;;;;;;5.48;54.68;98733.83;108091;1254;59602;-67
2024/01/14 10:45:25;;;;;;;35.60;16.70;;;;;;;5.49;54.27;98722.98;108092;1254;60342;-66
2024/01/14 10:47:56;;;;;;;34.10;17.00;;;;;;;5.64;53.73;98718.06;107968;1254;72297;-66
2024/01/14 10:50:26;;;;;;;37.80;17.60;;;;;;;5.73;53.35;98713.36;108112;1253;70803;-66
2024/01/14 10:53:11;;;;;;;35.50;18.10;;;;;;;5.86;52.78;98712.46;108137;1253;72633;-66
2024/01/14 10:55:48;;;;;;;32.80;15.40;;;;;;;5.92;52.42;98707.04;108076;1254;59724;-66
2024/01/14 10:58:26;;;;;;;32.10;14.80;;;;;;;5.86;52.03;98710.04;108131;1254;59709;-66
2024/01/14 11:00:59;;;;;;;28.00;15.40;;;;;;;6.05;51.59;98705.29;108169;1254;72271;-67
2024/01/14 11:03:28;;;;;;;24.80;12.70;;;;;;;6.00;51.42;98697.98;108189;1254;68915;-66
2024/01/14 11:05:56;;;;;;;26.90;13.80;;;;;;;5.88;51.40;98697.09;108240;1254;72763;-66
2024/01/14 11:08:24;;;;;;;27.50;13.30;;;;;;;5.77;51.21;98696.30;107990;1254;59712;-68
2024/01/14 11:10:52;;;;;;;26.00;12.50;;;;;;;5.63;51.45;98694.78;107956;1260;60897;-67
2024/01/14 11:13:41;;;;;;;30.60;13.60;;;;;;;5.58;51.65;98695.83;108134;1253;73197;-67
2024/01/14 11:16:25;;;;;;;31.90;13.70;;;;;;;5.61;51.57;98691.02;108038;1254;71328;-67
2024/01/14 11:19:01;;;;;;;33.10;15.90;;;;;;;5.31;51.87;98688.36;108165;1251;73037;-67